Time;durP1;ratioP1;P1;durP2;ratioP2;P2;SDS_P1;SDS_P2;PMS_P1;PMS_P2;Temp;Humidity;BMP_temperature;BMP_pressure;BME280_temperature;BME280_humidity;BME280_pressure;Samples;Min_cycle;Max_cycle;Signal;HPM_P1;HPM_P2
2023/05/16 00:01:08;;;;;;;14.50;12.10;;;9.60;99.90;;;;;;8329884;28;20224;-65
2023/05/16 00:05:15;;;;;;;13.47;12.07;;;9.60;99.90;;;;;;8329476;28;20230;-63
2023/05/16 00:09:16;;;;;;;13.93;12.50;;;9.60;99.90;;;;;;8320689;28;20268;-63
2023/05/16 00:13:21;;;;;;;12.07;10.97;;;9.60;99.90;;;;;;8327421;28;20182;-63
2023/05/16 00:17:22;;;;;;;13.10;11.80;;;9.50;99.90;;;;;;8315144;28;20263;-63
2023/05/16 00:21:24;;;;;;;12.23;11.03;;;9.50;99.90;;;;;;8326978;28;20271;-63
2023/05/16 00:25:32;;;;;;;12.30;11.07;;;9.50;99.90;;;;;;8328912;28;20251;-64
2023/05/16 00:29:34;;;;;;;12.73;11.37;;;9.40;99.90;;;;;;8318713;28;20189;-64
2023/05/16 00:33:39;;;;;;;13.53;11.40;;;9.40;99.90;;;;;;8316125;28;20201;-63
2023/05/16 00:37:40;;;;;;;15.10;12.33;;;9.40;99.90;;;;;;8301717;28;20190;-75
2023/05/16 00:41:41;;;;;;;12.53;11.23;;;9.40;99.90;;;;;;8322823;28;20206;-72
2023/05/16 00:45:43;;;;;;;12.73;11.43;;;9.40;99.90;;;;;;8317331;28;20303;-71
2023/05/16 00:49:44;;;;;;;13.63;12.20;;;9.30;99.90;;;;;;8321124;28;20293;-74
2023/05/16 00:53:45;;;;;;;13.73;12.33;;;9.30;99.90;;;;;;8329092;28;20209;-72
2023/05/16 00:57:46;;;;;;;14.87;12.47;;;9.30;99.90;;;;;;8314989;28;20203;-69
2023/05/16 01:01:49;;;;;;;12.77;11.47;;;9.30;99.90;;;;;;8313169;28;20210;-73
2023/05/16 01:05:50;;;;;;;14.07;12.70;;;9.30;99.90;;;;;;8312122;28;20277;-72
2023/05/16 01:09:52;;;;;;;12.03;10.90;;;9.30;99.90;;;;;;8299469;28;20236;-74
2023/05/16 01:14:27;;;;;;;13.50;11.90;;;9.30;99.90;;;;;;8298691;28;20198;-73
2023/05/16 01:18:59;;;;;;;15.07;11.67;;;9.30;99.90;;;;;;8318622;28;20202;-70
2023/05/16 01:23:18;;;;;;;12.77;11.10;;;9.20;99.90;;;;;;8311113;28;20221;-73
2023/05/16 01:27:20;;;;;;;13.93;10.77;;;9.20;99.90;;;;;;8313235;28;20182;-73
2023/05/16 01:31:22;;;;;;;12.27;11.00;;;9.20;99.90;;;;;;8311951;28;20269;-74
2023/05/16 01:35:25;;;;;;;14.23;11.77;;;9.20;99.90;;;;;;8328126;28;20182;-73
2023/05/16 01:39:32;;;;;;;12.50;11.33;;;9.20;99.90;;;;;;8301946;28;20186;-73
2023/05/16 01:43:44;;;;;;;13.73;12.37;;;9.20;99.90;;;;;;8312534;28;20199;-72
2023/05/16 01:47:53;;;;;;;13.93;12.17;;;9.20;99.90;;;;;;8310574;28;20312;-71
2023/05/16 01:52:00;;;;;;;16.07;12.63;;;9.30;99.90;;;;;;8312847;28;20214;-73
2023/05/16 01:56:02;;;;;;;13.33;11.93;;;9.40;99.90;;;;;;8311950;28;20281;-72
2023/05/16 02:00:04;;;;;;;12.80;11.60;;;9.30;99.90;;;;;;8304049;28;20233;-72
2023/05/16 02:04:05;;;;;;;14.97;13.47;;;9.30;99.90;;;;;;8327099;28;20218;-71
2023/05/16 02:08:07;;;;;;;16.07;11.80;;;9.30;99.90;;;;;;8316920;28;20200;-71
2023/05/16 02:12:08;;;;;;;14.27;12.67;;;9.30;99.90;;;;;;8305113;28;20190;-73
2023/05/16 02:16:12;;;;;;;17.90;12.43;;;9.20;99.90;;;;;;8314878;28;20196;-72
2023/05/16 02:20:13;;;;;;;13.33;11.97;;;9.20;99.90;;;;;;8335844;28;20186;-73
2023/05/16 02:24:14;;;;;;;16.27;12.17;;;9.40;99.90;;;;;;8320283;28;20220;-72
2023/05/16 02:28:15;;;;;;;12.30;11.17;;;9.30;99.90;;;;;;8322123;28;20189;-74
2023/05/16 02:32:16;;;;;;;12.93;11.63;;;9.30;99.90;;;;;;8323246;28;20182;-73
2023/05/16 02:36:18;;;;;;;14.93;11.90;;;9.20;99.90;;;;;;8321306;28;20282;-73
2023/05/16 02:40:18;;;;;;;16.23;11.47;;;9.10;99.90;;;;;;8325162;28;20183;-74
2023/05/16 02:44:19;;;;;;;14.07;12.60;;;9.00;99.90;;;;;;8335521;28;20256;-74
2023/05/16 02:48:21;;;;;;;13.20;11.90;;;9.00;99.90;;;;;;8320544;28;20182;-73
2023/05/16 02:52:22;;;;;;;13.10;11.80;;;9.00;99.90;;;;;;8332503;28;20182;-75
2023/05/16 02:56:23;;;;;;;14.63;12.33;;;9.00;99.90;;;;;;8322437;28;20236;-73
2023/05/16 03:00:27;;;;;;;13.47;11.83;;;9.00;99.90;;;;;;8317115;28;20198;-73
2023/05/16 03:04:28;;;;;;;15.07;12.87;;;9.10;99.90;;;;;;8323232;28;20225;-72
2023/05/16 03:08:30;;;;;;;13.97;12.50;;;9.10;99.90;;;;;;8301747;28;20209;-72
2023/05/16 03:12:31;;;;;;;15.00;13.33;;;9.10;99.90;;;;;;8301054;28;20187;-71
2023/05/16 03:16:32;;;;;;;13.40;11.93;;;9.20;99.90;;;;;;8331747;28;20190;-73
2023/05/16 03:20:35;;;;;;;15.30;13.77;;;9.20;99.90;;;;;;8333408;28;20190;-67
2023/05/16 03:24:43;;;;;;;15.43;13.93;;;9.30;99.90;;;;;;8328900;28;20283;-74
2023/05/16 03:28:44;;;;;;;14.97;13.37;;;9.40;99.90;;;;;;8327010;28;20195;-73
2023/05/16 03:32:55;;;;;;;15.07;13.50;;;9.50;99.90;;;;;;8335576;28;20284;-74
2023/05/16 03:36:56;;;;;;;13.63;12.33;;;9.60;99.90;;;;;;8338574;28;20191;-73
2023/05/16 03:40:57;;;;;;;15.27;12.47;;;9.80;99.90;;;;;;8330676;28;20186;-70
2023/05/16 03:44:58;;;;;;;13.87;12.37;;;9.90;99.90;;;;;;8326247;28;20317;-72
2023/05/16 03:48:59;;;;;;;13.13;11.80;;;10.00;99.90;;;;;;8322265;28;20221;-73
2023/05/16 03:53:03;;;;;;;11.60;10.50;;;10.10;99.90;;;;;;8333798;28;20256;-74
2023/05/16 03:57:05;;;;;;;12.70;11.43;;;10.10;99.90;;;;;;8327708;28;20248;-72
2023/05/16 04:01:06;;;;;;;12.17;10.97;;;10.10;99.90;;;;;;8340852;28;20190;-72
2023/05/16 04:05:08;;;;;;;12.13;10.10;;;10.20;99.90;;;;;;8326268;28;20295;-75
2023/05/16 04:09:09;;;;;;;12.33;11.03;;;10.20;99.90;;;;;;8323469;28;20209;-71
2023/05/16 04:13:10;;;;;;;10.90;9.90;;;10.20;99.90;;;;;;8340896;28;20191;-74
2023/05/16 04:17:12;;;;;;;13.53;12.03;;;10.30;99.90;;;;;;8326262;28;20220;-72
2023/05/16 04:21:14;;;;;;;12.80;10.87;;;10.40;99.90;;;;;;8320309;28;20211;-73
2023/05/16 04:25:15;;;;;;;11.07;10.03;;;10.70;99.90;;;;;;8343834;28;20259;-71
2023/05/16 04:29:16;;;;;;;14.90;9.83;;;11.10;99.90;;;;;;8348999;28;20184;-75
2023/05/16 04:33:18;;;;;;;10.90;9.80;;;11.50;99.90;;;;;;8327189;28;20219;-73
2023/05/16 04:37:19;;;;;;;11.30;8.57;;;12.30;99.90;;;;;;8343260;28;20194;-71
2023/05/16 04:41:21;;;;;;;10.77;8.30;;;13.00;99.90;;;;;;8332227;28;20221;-71
2023/05/16 04:45:23;;;;;;;9.53;7.33;;;13.60;99.90;;;;;;8324720;28;20193;-74
2023/05/16 04:49:24;;;;;;;9.73;7.60;;;14.10;99.90;;;;;;8324145;28;20182;-72
2023/05/16 04:53:25;;;;;;;8.47;7.23;;;14.20;99.90;;;;;;8318404;28;20186;-70
2023/05/16 04:57:29;;;;;;;8.33;7.40;;;14.10;99.90;;;;;;8322244;28;20221;-72
2023/05/16 05:01:30;;;;;;;8.07;7.30;;;14.00;99.90;;;;;;8326022;28;20206;-73
2023/05/16 05:05:31;;;;;;;9.20;8.07;;;13.70;99.90;;;;;;8328042;28;20296;-71
2023/05/16 05:09:33;;;;;;;8.80;7.87;;;13.30;1.00;;;;;;8337098;28;20204;-73
2023/05/16 05:13:34;;;;;;;8.63;7.83;;;13.30;4.60;;;;;;8324377;28;20182;-72
2023/05/16 05:17:36;;;;;;;11.17;8.43;;;13.40;99.90;;;;;;8324227;28;20188;-72
2023/05/16 05:21:42;;;;;;;10.20;8.33;;;13.50;50.20;;;;;;8333200;28;20209;-68
2023/05/16 05:25:46;;;;;;;9.70;8.63;;;13.40;1.00;;;;;;8317901;28;20186;-73
2023/05/16 05:29:47;;;;;;;9.60;8.70;;;13.10;99.90;;;;;;8319719;28;20193;-71
2023/05/16 05:33:48;;;;;;;11.30;10.10;;;13.20;1.00;;;;;;8332810;28;20186;-71
2023/05/16 05:37:49;;;;;;;14.93;10.37;;;13.30;99.90;;;;;;8318688;28;20198;-71
2023/05/16 05:41:57;;;;;;;11.70;10.47;;;13.40;99.90;;;;;;8334667;28;20222;-68
2023/05/16 05:45:58;;;;;;;13.87;11.20;;;13.50;1.00;;;;;;8320266;28;20190;-69
2023/05/16 05:49:59;;;;;;;12.70;9.73;;;13.60;99.90;;;;;;8323265;28;20293;-70
2023/05/16 05:54:02;;;;;;;11.60;10.47;;;13.80;99.90;;;;;;8324827;28;20194;-71
2023/05/16 05:58:03;;;;;;;12.90;11.57;;;14.00;99.90;;;;;;8326773;28;20196;-71
2023/05/16 06:02:04;;;;;;;11.77;10.43;;;14.00;1.00;;;;;;8324517;28;20268;-70
2023/05/16 06:06:06;;;;;;;13.47;12.13;;;13.80;23.90;;;;;;8339282;28;20186;-70
2023/05/16 06:10:07;;;;;;;15.27;12.60;;;13.70;81.30;;;;;;8322571;28;20197;-71
2023/05/16 06:14:08;;;;;;;17.23;13.40;;;13.40;99.90;;;;;;8341785;28;20268;-71
2023/05/16 06:18:09;;;;;;;15.70;13.97;;;13.30;4.90;;;;;;8325418;28;20194;-67
2023/05/16 06:22:10;;;;;;;15.30;13.87;;;13.10;1.00;;;;;;8336370;28;20213;-69
2023/05/16 06:26:11;;;;;;;16.57;14.73;;;13.00;99.90;;;;;;8324807;28;20190;-66
2023/05/16 06:30:12;;;;;;;21.90;16.83;;;12.70;1.00;;;;;;8321378;28;20201;-73
2023/05/16 06:34:16;;;;;;;17.93;16.10;;;12.50;33.60;;;;;;8325259;28;20286;-71
2023/05/16 06:38:21;;;;;;;19.20;16.73;;;12.30;99.90;;;;;;8322920;28;20189;-69
2023/05/16 06:42:22;;;;;;;17.93;16.13;;;12.20;99.90;;;;;;8340390;28;20210;-68
2023/05/16 06:46:23;;;;;;;20.23;16.17;;;12.20;99.90;;;;;;8318894;28;20197;-68
2023/05/16 06:50:27;;;;;;;19.60;17.53;;;12.30;99.90;;;;;;8317691;28;20253;-69
2023/05/16 06:54:31;;;;;;;19.43;16.13;;;12.50;99.90;;;;;;8323325;28;20199;-68
2023/05/16 06:58:32;;;;;;;20.40;17.17;;;12.50;1.00;;;;;;8320559;28;20243;-68
2023/05/16 07:02:33;;;;;;;18.40;16.10;;;12.40;99.90;;;;;;8322031;28;20221;-68
2023/05/16 07:06:34;;;;;;;19.53;17.07;;;12.50;94.50;;;;;;8320494;28;20189;-69
2023/05/16 07:10:35;;;;;;;21.77;17.83;;;12.60;99.90;;;;;;8333100;28;20220;-67
2023/05/16 07:14:36;;;;;;;19.23;16.40;;;12.70;99.90;;;;;;8322566;28;20195;-67
2023/05/16 07:18:38;;;;;;;18.80;16.93;;;12.60;50.80;;;;;;8332732;28;20200;-67
2023/05/16 07:22:40;;;;;;;20.27;18.03;;;12.50;99.90;;;;;;8316013;28;20224;-67
2023/05/16 07:26:40;;;;;;;22.37;17.83;;;12.40;1.00;;;;;;8316465;28;20202;-69
2023/05/16 07:30:42;;;;;;;20.80;17.80;;;12.30;99.90;;;;;;8333967;28;20251;-67
2023/05/16 07:34:43;;;;;;;20.00;17.73;;;12.30;1.00;;;;;;8320450;28;20193;-68
2023/05/16 07:38:44;;;;;;;18.87;16.93;;;12.40;99.90;;;;;;8321475;28;20251;-66
2023/05/16 07:42:45;;;;;;;20.40;16.57;;;12.60;1.00;;;;;;8317979;28;20206;-67
2023/05/16 07:46:46;;;;;;;21.30;16.63;;;12.70;99.90;;;;;;8332449;28;20279;-67
2023/05/16 07:50:47;;;;;;;18.70;16.80;;;12.80;99.90;;;;;;8320474;28;20214;-68
2023/05/16 07:54:48;;;;;;;20.60;17.47;;;12.70;1.00;;;;;;8322123;28;20189;-67
2023/05/16 07:58:50;;;;;;;22.80;17.53;;;12.50;1.00;;;;;;8330848;28;20197;-68
2023/05/16 08:02:54;;;;;;;20.47;18.10;;;12.40;99.90;;;;;;8318958;28;20288;-67
2023/05/16 08:06:58;;;;;;;20.20;17.23;;;12.50;1.00;;;;;;8322363;28;20182;-67
2023/05/16 08:10:59;;;;;;;18.43;16.40;;;12.60;99.90;;;;;;8313946;28;20295;-69
2023/05/16 08:15:00;;;;;;;18.43;16.50;;;12.70;99.90;;;;;;8318206;28;20186;-69
2023/05/16 08:19:08;;;;;;;20.20;17.50;;;12.80;1.00;;;;;;8315323;28;20244;-67
2023/05/16 08:23:09;;;;;;;17.70;15.90;;;12.80;99.90;;;;;;8333032;28;20312;-70
2023/05/16 08:27:10;;;;;;;21.57;17.50;;;12.80;99.90;;;;;;8316430;28;20250;-66
2023/05/16 08:31:11;;;;;;;19.37;17.23;;;12.80;23.00;;;;;;8313486;28;20217;-67
2023/05/16 08:35:13;;;;;;;19.37;15.97;;;12.90;99.90;;;;;;8317896;28;20182;-68
2023/05/16 08:39:17;;;;;;;19.73;17.03;;;12.80;99.90;;;;;;8316982;28;20185;-67
2023/05/16 08:43:18;;;;;;;18.60;16.77;;;12.80;99.90;;;;;;8309486;28;20207;-67
2023/05/16 08:47:23;;;;;;;19.20;17.27;;;12.90;99.90;;;;;;8321171;28;20278;-68
2023/05/16 08:51:31;;;;;;;20.30;17.67;;;12.80;1.00;;;;;;8314527;28;20190;-68
2023/05/16 08:55:33;;;;;;;22.73;18.53;;;12.70;99.90;;;;;;8317749;28;20185;-67
2023/05/16 08:59:37;;;;;;;21.23;18.90;;;12.50;99.90;;;;;;8312677;28;20196;-66
2023/05/16 09:03:39;;;;;;;22.50;19.17;;;12.50;99.90;;;;;;8311533;28;20222;-67
2023/05/16 09:07:41;;;;;;;22.30;18.60;;;12.50;99.90;;;;;;8310911;28;20228;-67
2023/05/16 09:11:43;;;;;;;23.07;18.47;;;12.50;99.90;;;;;;8319891;28;20208;-67
2023/05/16 09:15:44;;;;;;;22.50;20.10;;;12.70;99.90;;;;;;8317970;28;20190;-66
2023/05/16 09:19:47;;;;;;;23.73;18.63;;;12.70;4.00;;;;;;8310934;28;20296;-68
2023/05/16 09:23:50;;;;;;;22.73;17.57;;;12.80;1.00;;;;;;8325874;28;20210;-66
2023/05/16 09:28:00;;;;;;;23.03;17.97;;;12.90;1.00;;;;;;8323808;28;20199;-69
2023/05/16 09:32:17;;;;;;;20.63;17.10;;;13.00;99.90;;;;;;8314662;28;20194;-67
2023/05/16 09:36:18;;;;;;;19.30;17.10;;;13.00;1.00;;;;;;8340360;28;20178;-72
2023/05/16 09:40:25;;;;;;;22.37;18.27;;;13.20;99.90;;;;;;8328865;28;20178;-72
2023/05/16 09:44:30;;;;;;;22.33;17.03;;;13.40;1.00;;;;;;8340831;28;20214;-72
2023/05/16 09:48:35;;;;;;;26.23;19.03;;;13.40;31.60;;;;;;8329324;28;20187;-71
2023/05/16 09:52:37;;;;;;;21.70;19.10;;;13.10;1.00;;;;;;8325061;28;20221;-71
2023/05/16 09:56:56;;;;;;;22.77;18.67;;;13.00;99.90;;;;;;8324540;28;20231;-71
2023/05/16 10:00:58;;;;;;;22.77;19.10;;;12.60;99.90;;;;;;8324129;28;20244;-72
2023/05/16 10:04:58;;;;;;;25.17;18.73;;;12.50;99.90;;;;;;8321615;28;20225;-73
2023/05/16 10:09:00;;;;;;;21.73;18.23;;;12.50;99.90;;;;;;8337601;28;20276;-70
2023/05/16 10:13:03;;;;;;;21.33;17.93;;;12.50;99.90;;;;;;8326849;28;20287;-70
2023/05/16 10:17:07;;;;;;;21.87;19.67;;;12.50;1.00;;;;;;8319754;28;20277;-69
2023/05/16 10:21:13;;;;;;;23.80;19.87;;;12.50;1.00;;;;;;8340817;28;20182;-70
2023/05/16 10:25:33;;;;;;;23.33;20.63;;;12.60;99.90;;;;;;8336282;28;20265;-73
2023/05/16 10:29:39;;;;;;;22.57;20.00;;;12.60;99.90;;;;;;8325516;28;20209;-71
2023/05/16 10:33:40;;;;;;;24.37;20.90;;;12.70;99.90;;;;;;8325759;28;20197;-68
2023/05/16 10:37:42;;;;;;;26.07;22.23;;;13.10;1.00;;;;;;8325614;28;20194;-71
2023/05/16 10:41:43;;;;;;;24.50;20.70;;;13.20;1.00;;;;;;8318585;28;20217;-69
2023/05/16 10:46:02;;;;;;;21.33;18.17;;;13.50;1.00;;;;;;8316614;28;20202;-71
2023/05/16 10:50:29;;;;;;;22.80;17.17;;;13.70;99.90;;;;;;8337285;28;20193;-70
2023/05/16 10:54:38;;;;;;;18.77;16.67;;;13.20;99.90;;;;;;8329606;28;20281;-71
2023/05/16 10:58:43;;;;;;;19.20;17.20;;;13.10;99.90;;;;;;8327688;28;20278;-69
2023/05/16 11:02:44;;;;;;;22.20;16.53;;;13.00;1.00;;;;;;8321927;28;20243;-70
2023/05/16 11:06:49;;;;;;;19.37;15.73;;;13.20;99.90;;;;;;8344534;28;20190;-72
2023/05/16 11:10:49;;;;;;;17.20;15.23;;;13.40;99.90;;;;;;8335372;28;20191;-69
2023/05/16 11:14:51;;;;;;;19.30;15.67;;;13.80;1.00;;;;;;8328335;28;20204;-71
2023/05/16 11:18:51;;;;;;;16.90;14.60;;;13.80;1.00;;;;;;8336993;28;20186;-70
2023/05/16 11:23:15;;;;;;;18.53;16.37;;;13.70;99.90;;;;;;8324602;28;20297;-71
2023/05/16 11:27:44;;;;;;;24.20;18.47;;;13.30;99.90;;;;;;8338593;28;20182;-71
2023/05/16 11:31:45;;;;;;;17.73;15.70;;;12.80;1.00;;;;;;8282495;28;20209;-71
2023/05/16 11:36:03;;;;;;;19.97;17.20;;;12.60;1.00;;;;;;8319686;28;20191;-71
2023/05/16 11:40:10;;;;;;;19.67;17.23;;;12.50;99.90;;;;;;8320242;28;20206;-70
2023/05/16 11:44:12;;;;;;;21.93;17.73;;;12.50;96.70;;;;;;8323283;28;20224;-69
2023/05/16 11:48:13;;;;;;;22.97;16.37;;;12.40;99.90;;;;;;8322950;28;20186;-72
2023/05/16 11:52:18;;;;;;;21.30;17.03;;;12.30;99.90;;;;;;8318748;28;20190;-70
2023/05/16 11:56:22;;;;;;;20.53;17.73;;;12.20;1.00;;;;;;8316439;28;20197;-71
2023/05/16 12:00:25;;;;;;;21.80;18.57;;;12.10;99.90;;;;;;8320606;28;20178;-72
2023/05/16 12:04:27;;;;;;;21.70;18.63;;;12.10;99.90;;;;;;8321271;28;20210;-73
2023/05/16 12:08:29;;;;;;;21.20;17.27;;;11.90;99.90;;;;;;8319240;28;20194;-72
2023/05/16 12:12:30;;;;;;;26.03;18.10;;;11.80;99.90;;;;;;8319354;28;20199;-71
2023/05/16 12:16:32;;;;;;;21.77;18.03;;;11.80;99.90;;;;;;8322173;28;20200;-71
2023/05/16 12:20:36;;;;;;;20.60;16.77;;;11.90;99.90;;;;;;8333231;28;20198;-72
2023/05/16 12:24:40;;;;;;;18.23;15.70;;;11.90;99.90;;;;;;8314596;28;20217;-69
2023/05/16 12:28:43;;;;;;;19.67;17.30;;;11.90;10.20;;;;;;8321236;28;20185;-69
2023/05/16 12:32:44;;;;;;;22.27;17.13;;;11.70;81.40;;;;;;8320776;28;20196;-69
2023/05/16 12:36:50;;;;;;;19.67;16.47;;;11.70;99.90;;;;;;8315102;28;20276;-73
2023/05/16 12:40:57;;;;;;;19.80;16.37;;;11.80;99.90;;;;;;8314619;28;20303;-72
2023/05/16 12:45:01;;;;;;;16.63;14.87;;;11.90;1.00;;;;;;8333472;28;20204;-71
2023/05/16 12:49:05;;;;;;;20.50;15.00;;;12.00;1.00;;;;;;8317426;28;20195;-70
2023/05/16 12:53:12;;;;;;;15.90;14.30;;;12.10;99.90;;;;;;8333175;28;20208;-71
2023/05/16 12:57:13;;;;;;;15.17;12.93;;;12.20;99.90;;;;;;8324479;28;20186;-71
2023/05/16 13:01:15;;;;;;;18.37;13.53;;;12.40;99.90;;;;;;8319588;28;20189;-70
2023/05/16 13:05:16;;;;;;;16.53;14.33;;;12.40;99.90;;;;;;8316164;28;20282;-70
2023/05/16 13:09:18;;;;;;;17.33;14.53;;;12.30;99.90;;;;;;8318714;28;20204;-72
2023/05/16 13:13:25;;;;;;;18.87;14.47;;;12.10;81.70;;;;;;8317298;28;20250;-72
2023/05/16 13:17:26;;;;;;;15.10;13.17;;;12.10;99.90;;;;;;8334924;28;20240;-71
2023/05/16 13:21:30;;;;;;;16.70;14.47;;;12.20;96.90;;;;;;8319710;28;20224;-70
2023/05/16 13:25:34;;;;;;;14.73;12.47;;;12.40;1.00;;;;;;8319352;28;20200;-73
2023/05/16 13:29:35;;;;;;;17.50;13.33;;;12.50;1.00;;;;;;8318356;28;20182;-72
2023/05/16 13:33:36;;;;;;;19.03;13.60;;;12.50;1.00;;;;;;8317113;28;20194;-70
2023/05/16 13:37:40;;;;;;;16.20;12.63;;;12.40;16.20;;;;;;8312162;28;20197;-71
2023/05/16 13:41:44;;;;;;;17.43;12.93;;;12.40;1.00;;;;;;8321324;28;20300;-70
2023/05/16 13:45:48;;;;;;;17.17;13.33;;;12.30;61.70;;;;;;8321405;28;20182;-70
2023/05/16 13:49:49;;;;;;;15.90;13.30;;;12.30;99.90;;;;;;8317079;28;20183;-71
2023/05/16 13:53:59;;;;;;;21.37;14.90;;;12.30;99.90;;;;;;8320505;28;20220;-70
2023/05/16 13:58:03;;;;;;;17.43;14.00;;;12.20;99.90;;;;;;8319142;28;20216;-70
2023/05/16 14:02:04;;;;;;;19.87;14.53;;;12.00;99.90;;;;;;8318008;28;20251;-70
2023/05/16 14:06:10;;;;;;;17.80;14.63;;;12.00;99.90;;;;;;8318596;28;20185;-71
2023/05/16 14:10:28;;;;;;;21.77;15.53;;;12.00;99.90;;;;;;8333819;28;20201;-72
2023/05/16 14:14:29;;;;;;;19.33;15.63;;;12.00;99.90;;;;;;8315841;28;20200;-72
2023/05/16 14:18:30;;;;;;;19.97;15.37;;;11.90;99.90;;;;;;8325993;28;20222;-70
2023/05/16 14:22:31;;;;;;;20.30;16.30;;;11.90;1.00;;;;;;8321527;28;20217;-71
2023/05/16 14:26:32;;;;;;;20.57;16.47;;;11.90;99.90;;;;;;8341732;28;20307;-72
2023/05/16 14:30:34;;;;;;;18.30;14.53;;;12.00;1.00;;;;;;8346337;28;20185;-72
2023/05/16 14:34:35;;;;;;;18.80;15.93;;;12.20;99.90;;;;;;8332163;28;20186;-71
2023/05/16 14:38:36;;;;;;;18.57;15.40;;;12.20;99.90;;;;;;8336495;28;20282;-71
2023/05/16 14:42:39;;;;;;;18.13;14.90;;;12.20;99.90;;;;;;8358232;28;20225;-71
2023/05/16 14:46:43;;;;;;;19.43;15.27;;;12.30;99.90;;;;;;8333365;28;20189;-72
2023/05/16 14:50:56;;;;;;;17.93;14.23;;;12.30;99.90;;;;;;8319623;28;20209;-72
2023/05/16 14:54:57;;;;;;;18.33;15.23;;;12.30;99.90;;;;;;8353018;28;20194;-72
2023/05/16 14:59:01;;;;;;;17.00;15.07;;;12.20;99.90;;;;;;8328425;28;20224;-70
2023/05/16 15:03:02;;;;;;;14.73;12.73;;;12.10;1.00;;;;;;8321593;28;20218;-68
2023/05/16 15:07:03;;;;;;;18.73;13.87;;;11.90;99.90;;;;;;8326122;28;20212;-73
2023/05/16 15:11:04;;;;;;;18.70;13.33;;;11.80;99.90;;;;;;8339628;28;20260;-70
2023/05/16 15:15:05;;;;;;;17.63;13.27;;;11.80;99.90;;;;;;8305278;28;20190;-69
2023/05/16 15:19:06;;;;;;;19.20;14.43;;;11.70;1.00;;;;;;8317012;28;20211;-71
2023/05/16 15:23:08;;;;;;;18.43;13.20;;;11.60;1.00;;;;;;8325550;28;20304;-70
2023/05/16 15:27:09;;;;;;;23.37;13.33;;;11.60;1.00;;;;;;8320657;28;20189;-71
2023/05/16 15:31:10;;;;;;;15.90;13.47;;;11.60;1.00;;;;;;8317816;28;20197;-72
2023/05/16 15:35:11;;;;;;;16.10;12.80;;;11.60;1.00;;;;;;8333340;28;20177;-70
2023/05/16 15:39:12;;;;;;;21.13;13.10;;;11.60;1.00;;;;;;8323165;28;20209;-71
2023/05/16 15:43:12;;;;;;;15.93;13.40;;;11.60;1.00;;;;;;8322680;28;20335;-72
2023/05/16 15:47:14;;;;;;;19.07;13.33;;;11.60;1.00;;;;;;8319947;28;20193;-72
2023/05/16 15:51:18;;;;;;;16.40;13.40;;;11.60;1.00;;;;;;8334769;28;20185;-71
2023/05/16 15:55:20;;;;;;;17.30;12.40;;;11.60;11.50;;;;;;8321291;28;20178;-67
2023/05/16 15:59:24;;;;;;;17.53;12.70;;;11.60;1.00;;;;;;8317617;28;20186;-67
2023/05/16 16:03:26;;;;;;;15.27;12.30;;;11.60;24.80;;;;;;8315895;28;20221;-66
2023/05/16 16:07:28;;;;;;;15.17;12.37;;;11.70;1.00;;;;;;8322636;28;20185;-71
2023/05/16 16:11:34;;;;;;;18.50;13.00;;;11.70;1.00;;;;;;8320317;28;20292;-70
2023/05/16 16:15:37;;;;;;;16.87;12.73;;;11.70;1.00;;;;;;8335844;28;20188;-67
2023/05/16 16:19:38;;;;;;;15.67;13.43;;;11.70;1.00;;;;;;8330046;28;20189;-71
2023/05/16 16:23:40;;;;;;;16.63;13.77;;;11.70;99.90;;;;;;8315571;28;20259;-71
2023/05/16 16:27:44;;;;;;;14.63;13.20;;;11.60;1.00;;;;;;8333322;28;20191;-70
2023/05/16 16:31:47;;;;;;;15.50;12.43;;;11.70;99.90;;;;;;8333943;28;20263;-70
2023/05/16 16:35:48;;;;;;;15.17;13.27;;;11.70;99.90;;;;;;8334838;28;20200;-71
2023/05/16 16:39:49;;;;;;;13.33;11.97;;;11.60;99.90;;;;;;8323359;28;20194;-71
2023/05/16 16:43:50;;;;;;;15.27;13.07;;;11.60;99.90;;;;;;8332316;28;20240;-70
2023/05/16 16:47:51;;;;;;;16.67;13.33;;;11.60;99.90;;;;;;8332987;28;20192;-72
2023/05/16 16:51:52;;;;;;;17.77;13.53;;;11.60;99.90;;;;;;8335363;28;20193;-70
2023/05/16 16:55:53;;;;;;;14.93;12.43;;;11.60;99.90;;;;;;8315946;28;20294;-70
2023/05/16 16:59:58;;;;;;;13.30;11.90;;;11.60;99.90;;;;;;8315920;28;20197;-70
2023/05/16 17:04:00;;;;;;;12.43;10.93;;;11.60;99.90;;;;;;8318492;28;20279;-69
2023/05/16 17:08:01;;;;;;;12.63;11.23;;;11.60;99.90;;;;;;8315914;28;20186;-71
2023/05/16 17:12:07;;;;;;;14.00;11.57;;;11.60;99.90;;;;;;8321176;28;20201;-71
2023/05/16 17:16:09;;;;;;;12.43;11.17;;;11.50;99.90;;;;;;8319516;28;20185;-70
2023/05/16 17:20:12;;;;;;;15.60;11.80;;;11.50;99.90;;;;;;8321190;28;20183;-69
2023/05/16 17:24:13;;;;;;;13.70;11.13;;;11.40;1.00;;;;;;8314226;28;20217;-71
2023/05/16 17:28:14;;;;;;;15.43;10.60;;;11.40;99.90;;;;;;8319640;28;20199;-70
2023/05/16 17:32:18;;;;;;;12.40;11.17;;;11.40;99.90;;;;;;8319209;28;20200;-71
2023/05/16 17:36:19;;;;;;;11.23;10.07;;;11.40;99.90;;;;;;8316520;28;20196;-71
2023/05/16 17:40:20;;;;;;;12.27;10.63;;;11.30;99.90;;;;;;8315266;28;20188;-73
2023/05/16 17:44:23;;;;;;;13.57;10.73;;;11.30;1.00;;;;;;8319116;28;20213;-72
2023/05/16 17:48:24;;;;;;;12.27;10.37;;;11.20;1.00;;;;;;8335604;28;20189;-72
2023/05/16 17:52:25;;;;;;;13.50;10.47;;;11.20;1.00;;;;;;8336844;28;20217;-70
2023/05/16 17:56:26;;;;;;;11.97;10.30;;;11.20;99.90;;;;;;8339150;28;20187;-71
2023/05/16 18:00:28;;;;;;;11.50;10.40;;;11.10;99.90;;;;;;8326221;28;20209;-72
2023/05/16 18:04:29;;;;;;;12.77;10.53;;;11.10;94.50;;;;;;8325323;28;20253;-72
2023/05/16 18:08:30;;;;;;;12.13;10.43;;;11.10;99.90;;;;;;8325801;28;20196;-72
2023/05/16 18:12:31;;;;;;;12.57;11.03;;;11.00;99.90;;;;;;8330870;28;20196;-71
2023/05/16 18:16:35;;;;;;;11.87;10.40;;;11.00;99.90;;;;;;8341327;28;20193;-71
2023/05/16 18:20:36;;;;;;;10.67;9.53;;;11.00;99.90;;;;;;8345050;28;20188;-71
2023/05/16 18:24:44;;;;;;;12.27;9.47;;;10.90;99.90;;;;;;8349390;28;20228;-70
2023/05/16 18:28:45;;;;;;;11.07;8.17;;;10.90;99.90;;;;;;8332671;28;20311;-72
2023/05/16 18:32:47;;;;;;;8.93;8.13;;;10.90;99.90;;;;;;8339249;28;20185;-71
2023/05/16 18:36:48;;;;;;;11.43;9.10;;;10.90;99.90;;;;;;8333868;28;20217;-72
2023/05/16 18:40:49;;;;;;;10.20;9.10;;;10.80;1.00;;;;;;8328244;28;20277;-73
2023/05/16 18:44:50;;;;;;;9.53;8.20;;;10.70;99.90;;;;;;8336424;28;20218;-71
2023/05/16 18:48:56;;;;;;;9.53;8.43;;;10.70;99.90;;;;;;8330652;28;20187;-71
2023/05/16 18:52:57;;;;;;;10.10;9.03;;;10.60;99.90;;;;;;8325651;28;20198;-72
2023/05/16 18:56:59;;;;;;;8.70;7.60;;;10.60;99.90;;;;;;8346154;28;20189;-72
2023/05/16 19:01:03;;;;;;;8.53;7.10;;;10.60;37.60;;;;;;8330001;28;20191;-72
2023/05/16 19:05:05;;;;;;;9.40;7.43;;;10.60;99.90;;;;;;8325817;28;20243;-72
2023/05/16 19:09:08;;;;;;;11.10;9.50;;;10.50;99.90;;;;;;8338144;28;20199;-70
2023/05/16 19:13:09;;;;;;;11.53;9.43;;;10.40;99.90;;;;;;8324505;28;20188;-70
2023/05/16 19:17:09;;;;;;;14.30;11.57;;;10.40;99.90;;;;;;8334104;28;20211;-72
2023/05/16 19:21:12;;;;;;;8.60;7.07;;;10.30;99.90;;;;;;8325361;28;20204;-71
2023/05/16 19:25:13;;;;;;;9.57;6.73;;;10.30;99.90;;;;;;8321239;28;20227;-71
2023/05/16 19:29:14;;;;;;;9.20;6.93;;;10.30;99.90;;;;;;8335366;28;20176;-73
2023/05/16 19:33:15;;;;;;;7.83;6.20;;;10.20;99.90;;;;;;8328708;28;20211;-71
2023/05/16 19:37:25;;;;;;;6.60;5.87;;;10.20;99.90;;;;;;8325872;28;20184;-71
2023/05/16 19:41:29;;;;;;;8.30;5.97;;;10.20;99.90;;;;;;8331354;28;20197;-72
2023/05/16 19:45:30;;;;;;;5.63;5.13;;;10.20;99.90;;;;;;8334413;28;20184;-72
2023/05/16 19:49:34;;;;;;;7.10;5.47;;;10.10;99.90;;;;;;8334942;28;20228;-71
2023/05/16 19:53:35;;;;;;;8.07;5.47;;;10.10;99.90;;;;;;8319493;28;20285;-72
2023/05/16 19:57:36;;;;;;;5.53;4.93;;;10.10;99.90;;;;;;8318941;28;20187;-71
2023/05/16 20:01:38;;;;;;;6.30;5.00;;;10.10;99.90;;;;;;8333050;28;20321;-71
2023/05/16 20:05:39;;;;;;;8.50;5.17;;;10.10;1.00;;;;;;8320449;28;20218;-73
2023/05/16 20:09:40;;;;;;;5.87;5.10;;;10.10;1.00;;;;;;8333945;28;20265;-71
2023/05/16 20:13:41;;;;;;;5.40;4.77;;;10.10;1.00;;;;;;8317911;28;20260;-72
2023/05/16 20:17:42;;;;;;;6.37;4.73;;;10.10;1.00;;;;;;8333719;28;20192;-72
2023/05/16 20:21:49;;;;;;;4.83;4.40;;;10.00;1.00;;;;;;8318513;28;20218;-73
2023/05/16 20:25:50;;;;;;;6.47;4.97;;;10.00;1.00;;;;;;8324137;28;20204;-72
2023/05/16 20:29:53;;;;;;;5.23;4.07;;;10.00;1.00;;;;;;8332079;28;20187;-70
2023/05/16 20:34:00;;;;;;;6.17;4.60;;;10.10;1.00;;;;;;8321260;28;20195;-71
2023/05/16 20:38:01;;;;;;;7.17;5.53;;;10.00;1.00;;;;;;8318608;28;20237;-72
2023/05/16 20:42:02;;;;;;;7.20;4.77;;;10.00;1.00;;;;;;8320773;28;20417;-72